createdAt,value
2017-08-05T00:09:44.251Z,3
2017-08-05T00:19:44.261Z,3
2017-08-05T00:29:44.299Z,3
2017-08-05T00:39:44.218Z,3
2017-08-05T00:49:44.249Z,3
2017-08-05T00:59:44.317Z,4
2017-08-05T01:09:44.310Z,3
2017-08-05T01:19:44.338Z,2
2017-08-05T01:29:44.262Z,3
2017-08-05T01:39:44.218Z,2
2017-08-05T01:49:44.291Z,2
2017-08-05T01:59:44.354Z,3
2017-08-05T02:09:44.218Z,3
2017-08-05T02:19:44.282Z,2
2017-08-05T02:29:44.250Z,3
2017-08-05T02:39:44.364Z,3
2017-08-05T02:49:44.305Z,3
2017-08-05T02:59:44.350Z,3
2017-08-05T03:09:44.265Z,3
2017-08-05T03:19:44.358Z,4
2017-08-05T03:29:44.307Z,3
2017-08-05T03:39:44.276Z,3
2017-08-05T03:49:44.335Z,3
2017-08-05T03:59:44.323Z,3
2017-08-05T04:09:44.252Z,4
2017-08-05T04:19:44.241Z,4
2017-08-05T04:29:44.341Z,4
2017-08-05T04:39:44.274Z,5
2017-08-05T04:49:44.361Z,4
2017-08-05T04:59:44.266Z,4
2017-08-05T05:09:44.232Z,4
2017-08-05T05:19:44.341Z,4
2017-08-05T05:29:44.269Z,4
2017-08-05T05:39:44.307Z,3
2017-08-05T05:49:44.316Z,3
2017-08-05T05:59:44.211Z,5
2017-08-05T06:09:44.268Z,4
2017-08-05T06:19:44.267Z,5
2017-08-05T06:29:44.214Z,5
2017-08-05T06:39:44.258Z,3
2017-08-05T06:49:44.220Z,4
2017-08-05T06:59:44.233Z,4
2017-08-05T07:09:44.293Z,3
2017-08-05T07:19:44.301Z,3
2017-08-05T07:29:44.333Z,3
2017-08-05T07:39:44.225Z,3
2017-08-05T07:49:44.290Z,3
2017-08-05T07:59:44.337Z,3
2017-08-05T08:09:44.252Z,3
2017-08-05T08:19:44.313Z,5
2017-08-05T08:29:44.314Z,7
2017-08-05T08:39:52.896Z,8
2017-08-05T08:49:53.401Z,8
2017-08-05T08:59:54.429Z,8
2017-08-05T09:09:55.930Z,5
2017-08-05T09:19:56.674Z,5
2017-08-05T09:29:53.400Z,5
2017-08-05T09:39:53.618Z,5
2017-08-05T09:49:52.714Z,6
2017-08-05T10:00:29.311Z,8
2017-08-05T10:09:51.902Z,5
2017-08-05T10:19:52.505Z,7
2017-08-05T10:29:52.187Z,7
2017-08-05T10:39:54.289Z,6
2017-08-05T10:49:52.855Z,7
2017-08-05T10:59:51.758Z,6
2017-08-05T11:09:53.244Z,7
2017-08-05T11:19:53.105Z,7
2017-08-05T11:29:53.954Z,9
2017-08-05T11:39:52.458Z,11
2017-08-05T11:49:53.561Z,10
2017-08-05T11:59:53.162Z,12
2017-08-05T12:09:53.140Z,13
2017-08-05T12:19:53.941Z,10
2017-08-05T12:29:52.673Z,5
2017-08-05T12:39:51.685Z,2
2017-08-05T12:49:52.434Z,2
2017-08-05T12:59:44.419Z,2
2017-08-05T13:09:44.466Z,2
2017-08-05T13:19:44.478Z,2
2017-08-05T13:30:46.587Z,2
2017-08-05T13:39:44.285Z,3
2017-08-05T13:49:44.395Z,5
2017-08-05T13:59:44.314Z,4
2017-08-05T14:09:44.302Z,5
2017-08-05T14:19:44.400Z,3
2017-08-05T14:29:44.354Z,2
2017-08-05T14:39:44.376Z,2
2017-08-05T14:49:44.400Z,2
2017-08-05T14:59:44.520Z,3
2017-08-05T15:09:44.347Z,4
2017-08-05T15:19:44.361Z,4
2017-08-05T15:29:44.396Z,4
2017-08-05T15:39:44.424Z,4
2017-08-05T15:49:44.341Z,5
2017-08-05T15:59:44.371Z,6
2017-08-05T16:09:44.312Z,7
2017-08-05T16:19:44.351Z,6
2017-08-05T16:29:44.325Z,6
2017-08-05T16:39:44.577Z,6
2017-08-05T16:49:44.357Z,6
2017-08-05T16:59:44.311Z,7
2017-08-05T17:09:44.874Z,6
2017-08-05T17:19:45.014Z,7
2017-08-05T17:29:44.383Z,6
2017-08-05T17:39:44.379Z,7
2017-08-05T17:49:44.472Z,7
2017-08-05T17:59:44.296Z,7
2017-08-05T18:09:44.325Z,8
2017-08-05T18:19:44.940Z,7
2017-08-05T18:29:44.379Z,7
2017-08-05T18:39:44.230Z,8
2017-08-05T18:49:44.296Z,8
2017-08-05T18:59:44.291Z,9
2017-08-05T19:09:44.312Z,11
2017-08-05T19:19:44.281Z,12
2017-08-05T19:29:44.354Z,13
2017-08-05T19:39:44.357Z,13
2017-08-05T19:49:44.319Z,14
2017-08-05T19:59:44.300Z,15
2017-08-05T20:09:44.224Z,17
2017-08-05T20:19:44.468Z,18
2017-08-05T20:29:44.322Z,19
2017-08-05T20:39:44.338Z,17
2017-08-05T20:49:44.399Z,20
2017-08-05T20:59:44.244Z,18
2017-08-05T21:09:44.281Z,17
2017-08-05T21:19:44.300Z,16
2017-08-05T21:29:44.235Z,12
2017-08-05T21:39:44.361Z,11
2017-08-05T21:49:44.309Z,11
2017-08-05T21:59:44.328Z,8
2017-08-05T22:09:44.333Z,8
2017-08-05T22:19:44.303Z,7
2017-08-05T22:29:44.251Z,7
2017-08-05T22:39:44.379Z,8
2017-08-05T22:49:44.332Z,6
2017-08-05T22:59:44.214Z,7
2017-08-05T23:09:44.265Z,7
2017-08-05T23:19:44.369Z,7
2017-08-05T23:29:44.310Z,7
2017-08-05T23:39:44.338Z,7
2017-08-05T23:49:44.276Z,7
2017-08-05T23:59:44.337Z,7
